石垣島の過去48時間の天気

石垣島 (Ishigaki jima)

現在時刻: 4/10 18:08 JST (4/10 09:08 UTC) 以下の時間は現地時間です。

過去48時間のMETAR気象情報
時間 風向 風速(m/s) 視程 気温(℃) 湿度(%) 気圧(hPa) 天気現象
10 17:00 東北東 7 10km以上 24 65 1017
10 16:00 東北東 7 10km以上 24 65 1018
10 15:00 東北東 7 10km以上 24 65 1018
10 14:00 東北東 7 10km以上 25 61 1019
10 13:00 東北東 8 10km以上 25 61 1020
10 12:00 東北東 8 10km以上 24 65 1020
10 11:00 東北東 8 10km以上 23 65 1021
10 10:00 北東 8 10km以上 23 69 1021
10 09:00 東北東 8 10km以上 23 65 1020
10 08:00 東北東 7 10km以上 22 69 1020
10 07:00 北東 7 10km以上 21 78 1019
10 06:00 北東 7 10km以上 20 78 1018
9 20:00 東北東 9 10km以上 21 83 1017
9 19:00 東北東 10 10km以上 21 83 1016
9 18:00 東北東 10 10km以上 21 83 1015
9 17:00 東北東 12 10km以上 21 83 1015
9 16:00 北東 11 10km以上 22 78 1015
9 15:00 北東 10 10km以上 21 83 1015
9 14:00 北東 11 10km以上 21 88 1015
9 13:00 北東 10 10km以上 20 100 1016
9 12:09 北北東 9 10km以上 20 100 1015 弱いしゅう雨
9 12:00 8 8000m 20 100 1015 しゅう雨
9 11:45 6 3000m 21 94 1015 強いしゅう雨
9 11:00 南東 4 10km以上 22 94 1015 弱いしゅう雨
9 10:00 南東 4 10km以上 21 100 1015
9 09:00 南東 4 10km以上 21 94 1015 周辺でしゅう雨
9 08:00 南東 4 10km以上 21 94 1015 周辺でしゅう雨
9 07:00 4 10km以上 21 94 1014 弱いしゅう雨
9 06:00 7 10km以上 20 100 1014 周辺でしゅう雨
9 05:46 6 10km以上 20 100 1014 弱いしゅう雨
9 05:30 東北東 6 7000m 20 100 1014 しゅう雨
ROIG 100800Z 07013KT 9999 SCT030 24/17 Q1017
ROIG 100700Z 06014KT 9999 FEW030 24/17 Q1018
ROIG 100600Z 06013KT 9999 SCT032 24/17 Q1018
ROIG 100500Z 07014KT 9999 FEW032 25/17 Q1019
ROIG 100400Z 07015KT 9999 FEW032 25/17 Q1020
ROIG 100300Z 06015KT 9999 SCT030 24/17 Q1020
ROIG 100200Z 06015KT 9999 SCT030 SCT040 23/16 Q1021
ROIG 100100Z 05015KT 9999 SCT030 23/17 Q1021
ROIG 100000Z 06015KT 9999 SCT030 23/16 Q1020
ROIG 092300Z 06014KT 9999 SCT025 22/16 Q1020
ROIG 092200Z 05013KT 9999 SCT025 BKN045 21/17 Q1019
ROIG 092100Z 05014KT 9999 SCT025 BKN035 20/16 Q1018
ROIG 091100Z 06017KT 9999 FEW020 BKN030 21/18 Q1017
ROIG 091000Z 06019KT 9999 FEW020 SCT025 21/18 Q1016
ROIG 090900Z 06020KT 9999 SCT020 21/18 Q1015
ROIG 090800Z 06023KT 9999 SCT020 21/18 Q1015
ROIG 090700Z 05022KT 9999 FEW015 SCT020 22/18 Q1015
ROIG 090600Z 04020KT 9999 FEW015 SCT020 BKN070 21/18 Q1015
ROIG 090500Z 04022KT 9999 FEW010 BKN015 BKN020 21/19 Q1015
ROIG 090400Z 04020KT 9999 FEW007 BKN010 20/20 Q1016
ROIG 090309Z 02017KT 9999 -SHRA FEW007 SCT010 BKN040 20/20 Q1015 RMK 1ST007 3CU010 7SC040 A2999
ROIG 090300Z 01015KT 8000 R04/1000VP2000U SHRA FEW003 SCT010 BKN020 FEW025TCU 20/20 Q1015
ROIG 090245Z 35012KT 3000 R04/0750VP2000D +SHRA BKN010 21/20 Q1015 RMK 7CU010 A3000 RI++
ROIG 090200Z 13007KT 090V150 9999 -SHRA FEW008 BKN023 BKN038 22/21 Q1015
ROIG 090100Z 13007KT 9999 FEW008 BKN038 21/21 Q1015
ROIG 090000Z 14008KT 9999 VCSH FEW010 BKN025 21/20 Q1015
ROIG 082300Z 13007KT 9999 VCSH FEW006 SCT013 BKN020 21/20 Q1015
ROIG 082200Z 10008KT 9999 -SHRA FEW006 SCT010 BKN018 21/20 Q1014
ROIG 082100Z 08013KT 9999 VCSH FEW007 SCT019 BKN070 20/20 Q1014
ROIG 082046Z 08012KT 9999 -SHRA FEW007 SCT010 BKN060 20/20 Q1014 RMK 1ST007 4CU010 7SC060 A2995
ROIG 082030Z 06012KT 7000 SHRA FEW007 BKN010 BKN015 20/20 Q1014 RMK 1ST007 5CU010 7CU015 A2995